Time;durP1;ratioP1;P1;durP2;ratioP2;P2;SDS_P1;SDS_P2;PMS_P1;PMS_P2;Temp;Humidity;BMP_temperature;BMP_pressure;BME280_temperature;BME280_humidity;BME280_pressure;Samples;Min_cycle;Max_cycle;Signal;HPM_P1;HPM_P2
2023/05/06 01:22:02;;;;;;;;;;;;;;;;;;4996484;28;19918;-93
2023/05/06 01:24:32;;;;;;;;;;;;;;;;;;4998833;28;19930;-92
2023/05/06 06:13:07;;;;;;;;;;;;;;;;;;4996634;28;19926;-88
2023/05/06 06:15:34;;;;;;;;;;;;;;;;;;4982252;28;19923;-87
2023/05/06 06:18:09;;;;;;;;;;;;;;;;;;4983447;28;19922;-88
2023/05/06 06:20:36;;;;;;;;;;;;;;;;;;4998793;28;19922;-87
2023/05/06 06:23:02;;;;;;;;;;;;;;;;;;4998734;28;19966;-87
2023/05/06 06:25:31;;;;;;;;;;;;;;;;;;5009503;28;19922;-87
2023/05/06 06:28:13;;;;;;;;;;;;;;;;;;5016721;28;19928;-88
2023/05/06 06:30:39;;;;;;;;;;;;;;;;;;5001199;28;19913;-89
2023/05/06 06:33:05;;;;;;;;;;;;;;;;;;4993830;28;19926;-87
2023/05/06 06:35:42;;;;;;;;;;;;;;;;;;4981855;28;19922;-87
2023/05/06 06:38:14;;;;;;;;;;;;;;;;;;4998521;28;19906;-87
2023/05/06 06:40:40;;;;;;;;;;;;;;;;;;4984609;28;19925;-94
2023/05/06 07:06:47;;;;;;;;;;;;;;;;;;800756;23;20200;-95
2023/05/06 07:09:13;;;;;;;;;;;;;;;;;;4976432;28;19989;-93
2023/05/06 07:11:39;;;;;;;;;;;;;;;;;;4981173;28;19914;-94
2023/05/06 07:17:02;;;;;;;;;;;;;;;;;;4996029;28;19914;-92
2023/05/06 08:34:47;;;;;;;;;;;;;;;;;;4252451;23;20342;-90
2023/05/06 09:47:20;;;;;;;;;;;;;;;;;;5036852;23;19937;-92
2023/05/06 14:12:00;;;;;;;;;;;;;;;;;;4992716;28;19936;-94
2023/05/06 14:14:27;;;;;;;;;;;;;;;;;;4982238;28;19949;-95
2023/05/06 14:17:00;;;;;;;;;;;;;;;;;;4982565;28;20010;-95
2023/05/06 15:11:20;;;;;;;;;;;;;;;;;;5341492;23;19929;-90
2023/05/06 15:13:47;;;;;;;;;;;;;;;;;;4999755;28;19965;-87
2023/05/06 15:16:28;;;;;;;;;;;;;;;;;;4998907;28;20457;-86
2023/05/06 15:22:10;;;;;;;;;;;;;;;;;;5019449;28;19916;-89
2023/05/06 15:24:47;;;;;;;;;;;;;;;;;;5017096;28;19917;-90
2023/05/06 15:27:14;;;;;;;;;;;;;;;;;;4992801;28;20399;-89
2023/05/06 15:29:39;;;;;;;;;;;;;;;;;;4995054;28;20343;-88
2023/05/06 15:32:08;;;;;;;;;;;;;;;;;;5035024;28;19922;-88
2023/05/06 15:47:47;;;;;;;;;;;;;;;;;;4988392;28;19933;-90
2023/05/06 15:50:14;;;;;;;;;;;;;;;;;;4975059;28;19922;-93
2023/05/06 15:52:43;;;;;;;;;;;;;;;;;;4979044;28;19922;-89
2023/05/06 15:55:20;;;;;;;;;;;;;;;;;;4976184;28;20422;-89
2023/05/06 15:57:48;;;;;;;;;;;;;;;;;;4974266;28;19922;-91
2023/05/06 16:00:14;;;;;;;;;;;;;;;;;;4991890;28;20244;-90
2023/05/06 16:02:40;;;;;;;;;;;;;;;;;;4978815;28;19993;-88
2023/05/06 16:05:08;;;;;;;;;;;;;;;;;;4979300;28;19928;-88
2023/05/06 16:07:34;;;;;;;;;;;;;;;;;;4976449;28;19926;-91
2023/05/06 16:10:00;;;;;;;;;;;;;;;;;;4991834;28;19949;-90
2023/05/06 16:12:26;;;;;;;;;;;;;;;;;;4971508;28;19930;-90
2023/05/06 16:14:52;;;;;;;;;;;;;;;;;;4976089;28;19937;-92
2023/05/06 16:17:18;;;;;;;;;;;;;;;;;;4992288;28;19938;-90
2023/05/06 16:19:44;;;;;;;;;;;;;;;;;;4994645;28;19922;-90
2023/05/06 16:22:10;;;;;;;;;;;;;;;;;;4976196;28;19910;-89
2023/05/06 16:24:36;;;;;;;;;;;;;;;;;;4974599;28;19945;-91
2023/05/06 16:27:04;;;;;;;;;;;;;;;;;;4991672;28;19933;-91
2023/05/06 16:29:30;;;;;;;;;;;;;;;;;;4979182;28;19922;-88
2023/05/06 16:31:56;;;;;;;;;;;;;;;;;;4975827;28;19937;-90
2023/05/06 16:34:22;;;;;;;;;;;;;;;;;;4994785;28;19941;-89
2023/05/06 16:36:49;;;;;;;;;;;;;;;;;;4991985;28;19948;-90
2023/05/06 16:39:15;;;;;;;;;;;;;;;;;;4978515;28;19929;-92
2023/05/06 16:41:41;;;;;;;;;;;;;;;;;;4974946;28;19934;-90
2023/05/06 16:44:08;;;;;;;;;;;;;;;;;;4975166;28;19926;-89
2023/05/06 16:46:34;;;;;;;;;;;;;;;;;;4975140;28;19923;-91
2023/05/06 16:49:02;;;;;;;;;;;;;;;;;;4974214;28;19910;-90
2023/05/06 16:51:28;;;;;;;;;;;;;;;;;;4975100;28;20479;-90
2023/05/06 16:53:54;;;;;;;;;;;;;;;;;;4975817;28;19926;-92
2023/05/06 16:56:20;;;;;;;;;;;;;;;;;;4975071;28;19930;-91
2023/05/06 16:58:46;;;;;;;;;;;;;;;;;;4974461;28;19922;-93
2023/05/06 17:01:11;;;;;;;;;;;;;;;;;;4974581;28;19929;-88
2023/05/06 17:03:38;;;;;;;;;;;;;;;;;;4988706;28;19933;-89
2023/05/06 17:06:04;;;;;;;;;;;;;;;;;;4973578;28;20342;-87
2023/05/06 17:08:30;;;;;;;;;;;;;;;;;;4974240;28;19945;-91
2023/05/06 17:10:56;;;;;;;;;;;;;;;;;;4959693;28;19922;-91
2023/05/06 17:13:22;;;;;;;;;;;;;;;;;;4958237;28;20390;-91
2023/05/06 17:15:48;;;;;;;;;;;;;;;;;;4974259;28;19929;-91
2023/05/06 17:18:14;;;;;;;;;;;;;;;;;;4958302;28;19922;-91
2023/05/06 17:20:40;;;;;;;;;;;;;;;;;;4958208;28;19928;-91
2023/05/06 17:23:06;;;;;;;;;;;;;;;;;;4958403;28;19922;-91
2023/05/06 17:25:32;;;;;;;;;;;;;;;;;;4958554;28;19926;-91
2023/05/06 17:27:58;;;;;;;;;;;;;;;;;;4958670;28;20387;-91
2023/05/06 17:30:24;;;;;;;;;;;;;;;;;;4958455;28;19922;-91
2023/05/06 17:32:50;;;;;;;;;;;;;;;;;;4958087;28;19945;-93
2023/05/06 17:35:19;;;;;;;;;;;;;;;;;;4956048;28;19985;-93
2023/05/06 17:37:45;;;;;;;;;;;;;;;;;;4958312;28;19922;-94
2023/05/06 17:40:11;;;;;;;;;;;;;;;;;;4957945;28;19973;-93
2023/05/06 17:42:43;;;;;;;;;;;;;;;;;;4958621;28;19926;-95
2023/05/06 17:45:08;;;;;;;;;;;;;;;;;;4957506;28;19981;-95
2023/05/06 17:47:34;;;;;;;;;;;;;;;;;;4952907;28;19925;-93
2023/05/06 17:50:00;;;;;;;;;;;;;;;;;;4960056;28;20401;-93
2023/05/06 17:52:26;;;;;;;;;;;;;;;;;;4958898;28;19922;-94
2023/05/06 17:54:52;;;;;;;;;;;;;;;;;;4960252;28;19968;-94
2023/05/06 17:57:19;;;;;;;;;;;;;;;;;;4960153;28;20255;-94
2023/05/06 17:59:45;;;;;;;;;;;;;;;;;;4960254;28;19976;-94
2023/05/06 18:02:14;;;;;;;;;;;;;;;;;;4959801;28;20009;-94
2023/05/06 18:04:40;;;;;;;;;;;;;;;;;;4960170;28;19933;-95
2023/05/06 18:07:06;;;;;;;;;;;;;;;;;;4959996;28;19922;-94
2023/05/06 18:09:32;;;;;;;;;;;;;;;;;;4960131;28;20017;-94
2023/05/06 18:11:58;;;;;;;;;;;;;;;;;;4959825;28;19937;-94
2023/05/06 18:14:24;;;;;;;;;;;;;;;;;;4959632;28;20393;-94
2023/05/06 18:16:50;;;;;;;;;;;;;;;;;;4959439;28;19937;-94
2023/05/06 18:19:16;;;;;;;;;;;;;;;;;;4959406;28;20037;-96
2023/05/06 18:21:42;;;;;;;;;;;;;;;;;;4974293;28;20045;-94
2023/05/06 18:24:08;;;;;;;;;;;;;;;;;;4959092;28;19929;-94
2023/05/06 18:26:35;;;;;;;;;;;;;;;;;;4975587;28;19976;-94
2023/05/06 18:29:02;;;;;;;;;;;;;;;;;;4957630;28;19969;-95
2023/05/06 18:31:28;;;;;;;;;;;;;;;;;;4958487;28;20363;-94
2023/05/06 18:33:54;;;;;;;;;;;;;;;;;;4957818;28;19937;-94
2023/05/06 18:36:20;;;;;;;;;;;;;;;;;;4958699;28;19926;-95
2023/05/06 18:38:46;;;;;;;;;;;;;;;;;;4959854;28;20294;-94
2023/05/06 18:41:12;;;;;;;;;;;;;;;;;;4959600;28;19926;-94
2023/05/06 18:43:38;;;;;;;;;;;;;;;;;;4959416;28;19926;-94
2023/05/06 18:46:04;;;;;;;;;;;;;;;;;;4959510;28;19930;-93
2023/05/06 18:48:30;;;;;;;;;;;;;;;;;;4959233;28;19926;-94
2023/05/06 18:50:56;;;;;;;;;;;;;;;;;;4975907;28;19922;-94
2023/05/06 18:53:22;;;;;;;;;;;;;;;;;;4959021;28;20378;-93
2023/05/06 18:55:48;;;;;;;;;;;;;;;;;;4959522;28;19977;-94
2023/05/06 18:58:15;;;;;;;;;;;;;;;;;;4958312;28;20286;-93
2023/05/06 19:00:40;;;;;;;;;;;;;;;;;;4958529;28;19972;-94
2023/05/06 19:03:06;;;;;;;;;;;;;;;;;;4958814;28;19922;-94
2023/05/06 19:05:32;;;;;;;;;;;;;;;;;;4959454;28;20006;-93
2023/05/06 19:07:58;;;;;;;;;;;;;;;;;;4959458;28;19926;-93
2023/05/06 19:10:24;;;;;;;;;;;;;;;;;;4959023;28;19977;-94
2023/05/06 19:12:50;;;;;;;;;;;;;;;;;;4958809;28;19922;-94
2023/05/06 19:15:17;;;;;;;;;;;;;;;;;;4958990;28;19926;-89
2023/05/06 19:17:43;;;;;;;;;;;;;;;;;;4966910;28;19929;-92
2023/05/06 19:20:10;;;;;;;;;;;;;;;;;;4948191;28;19923;-92
2023/05/06 19:22:35;;;;;;;;;;;;;;;;;;4957215;28;19981;-91
2023/05/06 19:25:01;;;;;;;;;;;;;;;;;;4959867;28;19973;-92
2023/05/06 19:27:27;;;;;;;;;;;;;;;;;;4976493;28;19945;-92
2023/05/06 19:29:53;;;;;;;;;;;;;;;;;;4960284;28;19929;-93
2023/05/06 19:32:19;;;;;;;;;;;;;;;;;;4975138;28;19925;-92
2023/05/06 19:34:45;;;;;;;;;;;;;;;;;;4958424;28;20390;-92
2023/05/06 19:37:11;;;;;;;;;;;;;;;;;;4958554;28;19980;-91
2023/05/06 19:39:37;;;;;;;;;;;;;;;;;;4971078;28;19968;-93
2023/05/06 19:42:03;;;;;;;;;;;;;;;;;;4950930;28;19923;-93
2023/05/06 19:44:29;;;;;;;;;;;;;;;;;;4951253;28;19930;-92
2023/05/06 19:46:55;;;;;;;;;;;;;;;;;;4951032;28;19930;-93
2023/05/06 19:49:21;;;;;;;;;;;;;;;;;;4950763;28;20397;-93
2023/05/06 19:51:47;;;;;;;;;;;;;;;;;;4974968;28;19922;-93
2023/05/06 19:54:13;;;;;;;;;;;;;;;;;;4958678;28;19993;-93
2023/05/06 19:56:39;;;;;;;;;;;;;;;;;;4958823;28;20298;-93
2023/05/06 19:59:04;;;;;;;;;;;;;;;;;;4973473;28;19929;-92
2023/05/06 20:01:30;;;;;;;;;;;;;;;;;;4958767;28;19922;-91
2023/05/06 20:03:56;;;;;;;;;;;;;;;;;;4958528;28;19941;-92
2023/05/06 20:06:22;;;;;;;;;;;;;;;;;;4958995;28;19930;-91
2023/05/06 20:08:48;;;;;;;;;;;;;;;;;;4958739;28;20386;-92
2023/05/06 20:11:14;;;;;;;;;;;;;;;;;;4957411;28;20371;-92
2023/05/06 20:13:40;;;;;;;;;;;;;;;;;;4958488;28;19957;-91
2023/05/06 20:16:06;;;;;;;;;;;;;;;;;;4958035;28;19945;-92
2023/05/06 20:18:32;;;;;;;;;;;;;;;;;;4958535;28;20404;-91
2023/05/06 20:20:58;;;;;;;;;;;;;;;;;;4958193;28;19945;-91
2023/05/06 20:23:24;;;;;;;;;;;;;;;;;;4958198;28;20379;-91
2023/05/06 20:25:50;;;;;;;;;;;;;;;;;;4958032;28;19929;-91
2023/05/06 20:28:17;;;;;;;;;;;;;;;;;;4943827;29;19929;-91
2023/05/06 20:30:43;;;;;;;;;;;;;;;;;;4956227;29;19927;-91
2023/05/06 20:33:09;;;;;;;;;;;;;;;;;;4973319;28;19976;-92
2023/05/06 20:35:39;;;;;;;;;;;;;;;;;;4959102;28;19964;-92
2023/05/06 20:38:05;;;;;;;;;;;;;;;;;;4959340;28;20338;-93
2023/05/06 20:43:00;;;;;;;;;;;;;;;;;;4978955;28;19923;-91
2023/05/06 20:45:26;;;;;;;;;;;;;;;;;;4974718;28;19945;-91
2023/05/06 20:47:56;;;;;;;;;;;;;;;;;;4958704;28;19998;-90
2023/05/06 20:50:22;;;;;;;;;;;;;;;;;;4958739;28;19985;-90
2023/05/06 20:52:48;;;;;;;;;;;;;;;;;;4958792;28;19922;-90
2023/05/06 20:55:14;;;;;;;;;;;;;;;;;;4958482;28;19926;-90
2023/05/06 20:57:52;;;;;;;;;;;;;;;;;;4958643;28;19922;-90
2023/05/06 21:00:24;;;;;;;;;;;;;;;;;;4958401;28;21134;-90
2023/05/06 21:02:50;;;;;;;;;;;;;;;;;;4959061;28;19922;-91
2023/05/06 21:05:16;;;;;;;;;;;;;;;;;;4959246;28;19929;-91
2023/05/06 21:07:42;;;;;;;;;;;;;;;;;;4958371;28;19926;-90
2023/05/06 21:10:19;;;;;;;;;;;;;;;;;;4958261;28;20279;-91
2023/05/06 21:12:45;;;;;;;;;;;;;;;;;;4958681;28;19922;-91
2023/05/06 21:17:41;;;;;;;;;;;;;;;;;;4974748;28;20020;-90
2023/05/06 21:20:21;;;;;;;;;;;;;;;;;;4958355;28;19929;-90
2023/05/06 21:22:46;;;;;;;;;;;;;;;;;;4958231;28;20375;-91
2023/05/06 21:25:13;;;;;;;;;;;;;;;;;;4974542;28;19933;-91
2023/05/06 21:27:39;;;;;;;;;;;;;;;;;;4958370;28;19929;-90
2023/05/06 21:30:04;;;;;;;;;;;;;;;;;;4958288;28;20009;-90
2023/05/06 21:32:31;;;;;;;;;;;;;;;;;;4958191;28;19964;-91
2023/05/06 21:34:57;;;;;;;;;;;;;;;;;;4958240;28;19930;-90
2023/05/06 21:37:23;;;;;;;;;;;;;;;;;;4957976;28;19922;-91
2023/05/06 21:39:51;;;;;;;;;;;;;;;;;;4950192;28;19929;-89
2023/05/06 21:42:17;;;;;;;;;;;;;;;;;;4945530;29;19930;-90
2023/05/06 21:44:43;;;;;;;;;;;;;;;;;;4944392;28;19926;-90
2023/05/06 21:47:10;;;;;;;;;;;;;;;;;;4974544;28;20275;-91
2023/05/06 21:49:36;;;;;;;;;;;;;;;;;;4958039;28;19971;-91
2023/05/06 21:52:02;;;;;;;;;;;;;;;;;;4958237;28;20005;-91
2023/05/06 21:54:30;;;;;;;;;;;;;;;;;;4957595;28;19926;-91
2023/05/06 21:56:57;;;;;;;;;;;;;;;;;;4957589;28;20012;-90
2023/05/06 21:59:23;;;;;;;;;;;;;;;;;;4957617;28;19926;-91
2023/05/06 22:01:52;;;;;;;;;;;;;;;;;;4963895;28;20009;-91
2023/05/06 22:04:19;;;;;;;;;;;;;;;;;;4957714;28;19922;-90
2023/05/06 22:06:45;;;;;;;;;;;;;;;;;;4947906;28;19922;-91
2023/05/06 22:09:11;;;;;;;;;;;;;;;;;;4955730;28;20008;-91
2023/05/06 22:11:38;;;;;;;;;;;;;;;;;;4957064;28;19925;-89
2023/05/06 22:14:05;;;;;;;;;;;;;;;;;;4957315;28;19970;-90
2023/05/06 22:16:32;;;;;;;;;;;;;;;;;;4957361;28;19964;-91
2023/05/06 22:18:58;;;;;;;;;;;;;;;;;;4971600;28;20401;-90
2023/05/06 22:21:25;;;;;;;;;;;;;;;;;;4957401;28;19922;-91
2023/05/06 22:23:51;;;;;;;;;;;;;;;;;;4957610;28;19930;-92
2023/05/06 22:26:17;;;;;;;;;;;;;;;;;;4957819;28;20426;-92
2023/05/06 22:28:43;;;;;;;;;;;;;;;;;;4964786;28;20655;-91
2023/05/06 22:31:09;;;;;;;;;;;;;;;;;;4957567;28;19923;-92
2023/05/06 22:33:46;;;;;;;;;;;;;;;;;;4958952;28;19926;-92
2023/05/06 22:36:12;;;;;;;;;;;;;;;;;;4961316;28;20004;-92
2023/05/06 22:38:38;;;;;;;;;;;;;;;;;;4961222;28;19961;-91
2023/05/06 22:41:04;;;;;;;;;;;;;;;;;;4960989;28;19922;-91
2023/05/06 22:43:31;;;;;;;;;;;;;;;;;;4960921;28;20009;-91
2023/05/06 22:45:57;;;;;;;;;;;;;;;;;;4977088;28;20339;-92
2023/05/06 22:48:23;;;;;;;;;;;;;;;;;;4961571;28;19961;-91
2023/05/06 22:50:49;;;;;;;;;;;;;;;;;;4961305;28;19922;-92
2023/05/06 22:53:14;;;;;;;;;;;;;;;;;;4961222;28;19922;-91
2023/05/06 22:55:40;;;;;;;;;;;;;;;;;;4960910;28;20386;-92
2023/05/06 22:58:06;;;;;;;;;;;;;;;;;;4960870;28;20005;-93
2023/05/06 23:00:32;;;;;;;;;;;;;;;;;;4960675;28;19926;-93
2023/05/06 23:02:58;;;;;;;;;;;;;;;;;;4960807;28;19926;-91
2023/05/06 23:05:24;;;;;;;;;;;;;;;;;;4960839;28;20494;-93
2023/05/06 23:08:07;;;;;;;;;;;;;;;;;;4960757;28;19922;-92
2023/05/06 23:10:33;;;;;;;;;;;;;;;;;;4960429;28;19929;-91
2023/05/06 23:13:00;;;;;;;;;;;;;;;;;;4960645;28;20298;-93
2023/05/06 23:15:26;;;;;;;;;;;;;;;;;;4960326;28;20073;-93
2023/05/06 23:17:52;;;;;;;;;;;;;;;;;;4960539;28;20411;-94
2023/05/06 23:20:17;;;;;;;;;;;;;;;;;;4960507;28;19922;-94
2023/05/06 23:22:43;;;;;;;;;;;;;;;;;;4961196;28;19922;-92
2023/05/06 23:25:09;;;;;;;;;;;;;;;;;;4976785;28;19922;-92
2023/05/06 23:27:35;;;;;;;;;;;;;;;;;;4960549;28;19929;-91
2023/05/06 23:30:01;;;;;;;;;;;;;;;;;;4960609;28;20142;-92
2023/05/06 23:32:27;;;;;;;;;;;;;;;;;;4976943;28;19922;-93
2023/05/06 23:34:53;;;;;;;;;;;;;;;;;;4960208;28;19985;-91
2023/05/06 23:37:19;;;;;;;;;;;;;;;;;;4960430;28;19945;-92
2023/05/06 23:39:46;;;;;;;;;;;;;;;;;;4960271;28;20393;-92
2023/05/06 23:42:12;;;;;;;;;;;;;;;;;;4960348;28;20297;-92
2023/05/06 23:44:38;;;;;;;;;;;;;;;;;;4960121;28;20064;-92
2023/05/06 23:47:04;;;;;;;;;;;;;;;;;;4976256;28;19922;-91
2023/05/06 23:49:29;;;;;;;;;;;;;;;;;;4960129;28;19926;-91
2023/05/06 23:51:55;;;;;;;;;;;;;;;;;;4960024;28;19970;-91
2023/05/06 23:54:21;;;;;;;;;;;;;;;;;;4959961;28;19926;-92
2023/05/06 23:56:47;;;;;;;;;;;;;;;;;;4960123;28;19964;-91
2023/05/06 23:59:13;;;;;;;;;;;;;;;;;;4959838;28;19926;-91
